sensor_id;sensor_type;location;lat;lon;timestamp;P1;durP1;ratioP1;P2;durP2;ratioP2
46318;SDS011;32042;50.916;2.926;2022-12-16T00:02:12;32.97;;;19.90;;
46318;SDS011;32042;50.916;2.926;2022-12-16T00:04:38;32.87;;;21.03;;
46318;SDS011;32042;50.916;2.926;2022-12-16T00:07:05;29.90;;;19.73;;
46318;SDS011;32042;50.916;2.926;2022-12-16T00:09:31;30.87;;;19.07;;
46318;SDS011;32042;50.916;2.926;2022-12-16T00:11:57;33.40;;;20.33;;
46318;SDS011;32042;50.916;2.926;2022-12-16T00:14:23;29.17;;;19.90;;
46318;SDS011;32042;50.916;2.926;2022-12-16T00:16:51;36.87;;;19.33;;
46318;SDS011;32042;50.916;2.926;2022-12-16T00:19:18;26.67;;;18.93;;
46318;SDS011;32042;50.916;2.926;2022-12-16T00:21:44;32.03;;;19.77;;
46318;SDS011;32042;50.916;2.926;2022-12-16T00:24:10;27.60;;;18.33;;
46318;SDS011;32042;50.916;2.926;2022-12-16T00:26:36;30.30;;;18.13;;
46318;SDS011;32042;50.916;2.926;2022-12-16T00:29:02;27.23;;;17.40;;
46318;SDS011;32042;50.916;2.926;2022-12-16T00:31:29;26.37;;;17.13;;
46318;SDS011;32042;50.916;2.926;2022-12-16T00:33:56;28.20;;;17.37;;
46318;SDS011;32042;50.916;2.926;2022-12-16T00:36:22;25.10;;;17.73;;
46318;SDS011;32042;50.916;2.926;2022-12-16T00:38:50;24.97;;;15.70;;
46318;SDS011;32042;50.916;2.926;2022-12-16T00:41:16;25.93;;;16.50;;
46318;SDS011;32042;50.916;2.926;2022-12-16T00:43:42;24.13;;;16.03;;
46318;SDS011;32042;50.916;2.926;2022-12-16T00:46:08;23.33;;;15.53;;
46318;SDS011;32042;50.916;2.926;2022-12-16T00:48:34;21.30;;;14.40;;
46318;SDS011;32042;50.916;2.926;2022-12-16T00:51:00;22.40;;;15.23;;
46318;SDS011;32042;50.916;2.926;2022-12-16T00:53:26;25.13;;;15.53;;
46318;SDS011;32042;50.916;2.926;2022-12-16T00:56:08;22.57;;;15.33;;
46318;SDS011;32042;50.916;2.926;2022-12-16T00:58:35;17.40;;;13.50;;
46318;SDS011;32042;50.916;2.926;2022-12-16T01:01:01;21.33;;;14.40;;
46318;SDS011;32042;50.916;2.926;2022-12-16T01:03:28;19.50;;;13.90;;
46318;SDS011;32042;50.916;2.926;2022-12-16T01:05:54;19.27;;;14.47;;
46318;SDS011;32042;50.916;2.926;2022-12-16T01:08:20;21.63;;;13.93;;
46318;SDS011;32042;50.916;2.926;2022-12-16T01:10:50;19.40;;;13.20;;
46318;SDS011;32042;50.916;2.926;2022-12-16T01:13:16;12.70;;;11.03;;
46318;SDS011;32042;50.916;2.926;2022-12-16T01:15:42;17.03;;;11.43;;
46318;SDS011;32042;50.916;2.926;2022-12-16T01:18:08;17.00;;;10.20;;
46318;SDS011;32042;50.916;2.926;2022-12-16T01:20:35;16.47;;;11.00;;
46318;SDS011;32042;50.916;2.926;2022-12-16T01:23:02;20.57;;;11.60;;
46318;SDS011;32042;50.916;2.926;2022-12-16T01:25:28;18.93;;;12.30;;
46318;SDS011;32042;50.916;2.926;2022-12-16T01:27:54;16.07;;;11.57;;
46318;SDS011;32042;50.916;2.926;2022-12-16T01:30:20;18.37;;;10.67;;
46318;SDS011;32042;50.916;2.926;2022-12-16T01:32:46;16.53;;;11.33;;
46318;SDS011;32042;50.916;2.926;2022-12-16T01:35:13;14.73;;;10.90;;
46318;SDS011;32042;50.916;2.926;2022-12-16T01:37:39;19.07;;;10.80;;
46318;SDS011;32042;50.916;2.926;2022-12-16T01:40:06;13.53;;;9.93;;
46318;SDS011;32042;50.916;2.926;2022-12-16T01:42:33;14.10;;;10.87;;
46318;SDS011;32042;50.916;2.926;2022-12-16T01:47:43;15.17;;;9.90;;
46318;SDS011;32042;50.916;2.926;2022-12-16T01:50:11;13.17;;;10.00;;
46318;SDS011;32042;50.916;2.926;2022-12-16T01:52:41;18.73;;;10.17;;
46318;SDS011;32042;50.916;2.926;2022-12-16T01:55:11;11.87;;;10.07;;
46318;SDS011;32042;50.916;2.926;2022-12-16T01:57:41;12.53;;;9.33;;
46318;SDS011;32042;50.916;2.926;2022-12-16T02:00:09;13.77;;;9.73;;
46318;SDS011;32042;50.916;2.926;2022-12-16T02:02:37;12.03;;;9.57;;
46318;SDS011;32042;50.916;2.926;2022-12-16T02:05:03;15.53;;;9.63;;
46318;SDS011;32042;50.916;2.926;2022-12-16T02:07:53;12.83;;;9.10;;
46318;SDS011;32042;50.916;2.926;2022-12-16T02:10:20;10.97;;;8.90;;
46318;SDS011;32042;50.916;2.926;2022-12-16T02:13:02;13.73;;;9.43;;
46318;SDS011;32042;50.916;2.926;2022-12-16T02:15:35;11.47;;;9.03;;
46318;SDS011;32042;50.916;2.926;2022-12-16T02:18:21;13.70;;;8.90;;
46318;SDS011;32042;50.916;2.926;2022-12-16T02:26:10;12.13;;;7.87;;
46318;SDS011;32042;50.916;2.926;2022-12-16T02:36:49;10.57;;;6.93;;
46318;SDS011;32042;50.916;2.926;2022-12-16T02:41:55;14.33;;;7.50;;
46318;SDS011;32042;50.916;2.926;2022-12-16T02:44:47;10.50;;;6.97;;
46318;SDS011;32042;50.916;2.926;2022-12-16T02:47:10;10.80;;;6.57;;
46318;SDS011;32042;50.916;2.926;2022-12-16T02:49:55;9.83;;;7.00;;
46318;SDS011;32042;50.916;2.926;2022-12-16T02:52:23;10.70;;;6.07;;
46318;SDS011;32042;50.916;2.926;2022-12-16T02:54:50;9.30;;;6.50;;
46318;SDS011;32042;50.916;2.926;2022-12-16T03:00:08;9.63;;;6.40;;
46318;SDS011;32042;50.916;2.926;2022-12-16T03:05:15;9.17;;;6.60;;
46318;SDS011;32042;50.916;2.926;2022-12-16T03:07:44;8.17;;;6.17;;
46318;SDS011;32042;50.916;2.926;2022-12-16T03:10:14;12.23;;;6.60;;
46318;SDS011;32042;50.916;2.926;2022-12-16T03:12:42;10.90;;;6.37;;
46318;SDS011;32042;50.916;2.926;2022-12-16T03:15:09;11.40;;;5.90;;
46318;SDS011;32042;50.916;2.926;2022-12-16T03:17:36;9.00;;;5.40;;
46318;SDS011;32042;50.916;2.926;2022-12-16T03:20:07;7.40;;;5.70;;
46318;SDS011;32042;50.916;2.926;2022-12-16T03:22:35;7.60;;;6.00;;
46318;SDS011;32042;50.916;2.926;2022-12-16T03:25:04;10.67;;;6.00;;
46318;SDS011;32042;50.916;2.926;2022-12-16T03:27:33;9.47;;;6.10;;
46318;SDS011;32042;50.916;2.926;2022-12-16T03:30:08;8.20;;;6.00;;
46318;SDS011;32042;50.916;2.926;2022-12-16T03:32:40;10.97;;;8.43;;
46318;SDS011;32042;50.916;2.926;2022-12-16T03:37:36;20.70;;;13.53;;
46318;SDS011;32042;50.916;2.926;2022-12-16T03:40:04;24.93;;;13.80;;
46318;SDS011;32042;50.916;2.926;2022-12-16T03:42:32;24.07;;;14.57;;
46318;SDS011;32042;50.916;2.926;2022-12-16T03:45:00;23.83;;;14.97;;
46318;SDS011;32042;50.916;2.926;2022-12-16T03:47:26;23.07;;;14.43;;
46318;SDS011;32042;50.916;2.926;2022-12-16T03:49:53;26.50;;;15.00;;
46318;SDS011;32042;50.916;2.926;2022-12-16T03:52:20;18.57;;;13.83;;
46318;SDS011;32042;50.916;2.926;2022-12-16T03:54:46;24.57;;;13.47;;
46318;SDS011;32042;50.916;2.926;2022-12-16T03:57:12;21.87;;;13.70;;
46318;SDS011;32042;50.916;2.926;2022-12-16T03:59:38;21.80;;;14.63;;
46318;SDS011;32042;50.916;2.926;2022-12-16T04:02:04;17.97;;;14.20;;
46318;SDS011;32042;50.916;2.926;2022-12-16T04:04:30;20.70;;;13.97;;
46318;SDS011;32042;50.916;2.926;2022-12-16T04:06:56;23.03;;;14.07;;
46318;SDS011;32042;50.916;2.926;2022-12-16T04:09:41;19.00;;;13.03;;
46318;SDS011;32042;50.916;2.926;2022-12-16T04:12:07;24.97;;;13.33;;
46318;SDS011;32042;50.916;2.926;2022-12-16T04:14:52;20.03;;;13.33;;
46318;SDS011;32042;50.916;2.926;2022-12-16T04:17:37;20.73;;;13.07;;
46318;SDS011;32042;50.916;2.926;2022-12-16T04:20:22;25.97;;;13.63;;
46318;SDS011;32042;50.916;2.926;2022-12-16T04:23:08;18.63;;;13.57;;
46318;SDS011;32042;50.916;2.926;2022-12-16T04:25:53;18.37;;;13.13;;
46318;SDS011;32042;50.916;2.926;2022-12-16T04:28:19;19.57;;;13.70;;
46318;SDS011;32042;50.916;2.926;2022-12-16T04:30:45;20.70;;;12.93;;
46318;SDS011;32042;50.916;2.926;2022-12-16T04:33:12;17.10;;;12.17;;
46318;SDS011;32042;50.916;2.926;2022-12-16T04:35:57;25.03;;;13.90;;
46318;SDS011;32042;50.916;2.926;2022-12-16T04:38:42;23.67;;;12.23;;
46318;SDS011;32042;50.916;2.926;2022-12-16T04:41:27;22.53;;;13.10;;
46318;SDS011;32042;50.916;2.926;2022-12-16T04:44:12;20.73;;;13.47;;
46318;SDS011;32042;50.916;2.926;2022-12-16T04:46:56;25.87;;;13.80;;
46318;SDS011;32042;50.916;2.926;2022-12-16T04:49:41;22.90;;;13.33;;
46318;SDS011;32042;50.916;2.926;2022-12-16T04:52:25;23.97;;;12.40;;
46318;SDS011;32042;50.916;2.926;2022-12-16T04:55:10;19.93;;;13.07;;
46318;SDS011;32042;50.916;2.926;2022-12-16T04:57:56;18.40;;;13.37;;
46318;SDS011;32042;50.916;2.926;2022-12-16T05:00:42;24.43;;;13.53;;
46318;SDS011;32042;50.916;2.926;2022-12-16T05:03:27;21.07;;;12.63;;
46318;SDS011;32042;50.916;2.926;2022-12-16T05:06:12;30.53;;;14.37;;
46318;SDS011;32042;50.916;2.926;2022-12-16T05:08:57;26.80;;;14.10;;
46318;SDS011;32042;50.916;2.926;2022-12-16T05:11:41;25.03;;;13.67;;
46318;SDS011;32042;50.916;2.926;2022-12-16T05:14:26;23.13;;;13.90;;
46318;SDS011;32042;50.916;2.926;2022-12-16T05:17:10;17.17;;;12.87;;
46318;SDS011;32042;50.916;2.926;2022-12-16T05:19:55;22.73;;;13.60;;
46318;SDS011;32042;50.916;2.926;2022-12-16T05:22:40;21.67;;;14.40;;
46318;SDS011;32042;50.916;2.926;2022-12-16T05:25:25;23.53;;;13.60;;
46318;SDS011;32042;50.916;2.926;2022-12-16T05:28:09;20.70;;;13.03;;
46318;SDS011;32042;50.916;2.926;2022-12-16T05:30:54;23.27;;;14.07;;
46318;SDS011;32042;50.916;2.926;2022-12-16T05:33:38;23.93;;;13.17;;
46318;SDS011;32042;50.916;2.926;2022-12-16T05:36:23;23.50;;;13.37;;
46318;SDS011;32042;50.916;2.926;2022-12-16T05:39:07;21.23;;;13.77;;
46318;SDS011;32042;50.916;2.926;2022-12-16T05:41:52;29.53;;;16.07;;
46318;SDS011;32042;50.916;2.926;2022-12-16T05:44:37;29.70;;;15.73;;
46318;SDS011;32042;50.916;2.926;2022-12-16T05:47:22;24.20;;;15.17;;
46318;SDS011;32042;50.916;2.926;2022-12-16T05:50:07;23.40;;;14.27;;
46318;SDS011;32042;50.916;2.926;2022-12-16T05:52:52;24.03;;;14.23;;
46318;SDS011;32042;50.916;2.926;2022-12-16T05:55:37;22.17;;;14.13;;
46318;SDS011;32042;50.916;2.926;2022-12-16T05:58:22;23.90;;;14.37;;
46318;SDS011;32042;50.916;2.926;2022-12-16T06:01:07;28.40;;;15.00;;
46318;SDS011;32042;50.916;2.926;2022-12-16T06:03:52;26.40;;;14.73;;
46318;SDS011;32042;50.916;2.926;2022-12-16T06:06:36;28.50;;;14.10;;
46318;SDS011;32042;50.916;2.926;2022-12-16T06:09:21;27.23;;;15.40;;
46318;SDS011;32042;50.916;2.926;2022-12-16T06:12:06;21.67;;;14.43;;
46318;SDS011;32042;50.916;2.926;2022-12-16T06:14:50;30.03;;;15.10;;
46318;SDS011;32042;50.916;2.926;2022-12-16T06:17:35;24.30;;;14.10;;
46318;SDS011;32042;50.916;2.926;2022-12-16T06:20:20;23.80;;;14.90;;
46318;SDS011;32042;50.916;2.926;2022-12-16T06:23:05;21.50;;;15.83;;
46318;SDS011;32042;50.916;2.926;2022-12-16T06:25:49;21.37;;;13.90;;
46318;SDS011;32042;50.916;2.926;2022-12-16T06:28:34;17.43;;;12.37;;
46318;SDS011;32042;50.916;2.926;2022-12-16T06:31:18;19.00;;;12.23;;
46318;SDS011;32042;50.916;2.926;2022-12-16T06:34:03;20.73;;;13.43;;
46318;SDS011;32042;50.916;2.926;2022-12-16T06:36:47;21.93;;;13.67;;
46318;SDS011;32042;50.916;2.926;2022-12-16T06:39:34;24.20;;;12.33;;
46318;SDS011;32042;50.916;2.926;2022-12-16T06:42:19;23.83;;;13.67;;
46318;SDS011;32042;50.916;2.926;2022-12-16T06:45:03;22.40;;;13.03;;
46318;SDS011;32042;50.916;2.926;2022-12-16T06:47:48;16.53;;;11.20;;
46318;SDS011;32042;50.916;2.926;2022-12-16T06:50:33;14.63;;;9.40;;
46318;SDS011;32042;50.916;2.926;2022-12-16T06:53:17;13.27;;;10.10;;
46318;SDS011;32042;50.916;2.926;2022-12-16T06:56:02;15.30;;;10.07;;
46318;SDS011;32042;50.916;2.926;2022-12-16T06:58:46;19.73;;;11.40;;
46318;SDS011;32042;50.916;2.926;2022-12-16T07:01:31;21.77;;;15.33;;
46318;SDS011;32042;50.916;2.926;2022-12-16T07:04:16;20.73;;;11.97;;
46318;SDS011;32042;50.916;2.926;2022-12-16T07:07:00;17.20;;;10.13;;
46318;SDS011;32042;50.916;2.926;2022-12-16T07:09:45;15.67;;;10.40;;
46318;SDS011;32042;50.916;2.926;2022-12-16T07:12:29;17.70;;;12.43;;
46318;SDS011;32042;50.916;2.926;2022-12-16T07:15:14;22.67;;;13.87;;
46318;SDS011;32042;50.916;2.926;2022-12-16T07:18:00;16.13;;;11.40;;
46318;SDS011;32042;50.916;2.926;2022-12-16T07:20:45;16.80;;;10.67;;
46318;SDS011;32042;50.916;2.926;2022-12-16T07:23:30;15.97;;;10.20;;
46318;SDS011;32042;50.916;2.926;2022-12-16T07:26:14;13.87;;;10.07;;
46318;SDS011;32042;50.916;2.926;2022-12-16T07:28:59;14.30;;;9.57;;
46318;SDS011;32042;50.916;2.926;2022-12-16T07:31:43;14.93;;;9.10;;
46318;SDS011;32042;50.916;2.926;2022-12-16T07:34:28;11.50;;;7.90;;
46318;SDS011;32042;50.916;2.926;2022-12-16T07:37:12;12.80;;;8.20;;
46318;SDS011;32042;50.916;2.926;2022-12-16T07:39:57;10.17;;;7.97;;
46318;SDS011;32042;50.916;2.926;2022-12-16T07:42:41;14.80;;;8.10;;
46318;SDS011;32042;50.916;2.926;2022-12-16T07:45:29;13.33;;;9.00;;
46318;SDS011;32042;50.916;2.926;2022-12-16T07:48:13;17.47;;;10.07;;
46318;SDS011;32042;50.916;2.926;2022-12-16T07:50:59;16.77;;;9.03;;
46318;SDS011;32042;50.916;2.926;2022-12-16T07:53:43;14.10;;;9.93;;
46318;SDS011;32042;50.916;2.926;2022-12-16T07:56:28;13.97;;;8.80;;
46318;SDS011;32042;50.916;2.926;2022-12-16T07:59:13;14.13;;;9.70;;
46318;SDS011;32042;50.916;2.926;2022-12-16T08:01:57;15.90;;;10.13;;
46318;SDS011;32042;50.916;2.926;2022-12-16T08:04:42;14.53;;;9.07;;
46318;SDS011;32042;50.916;2.926;2022-12-16T08:07:26;19.73;;;9.67;;
46318;SDS011;32042;50.916;2.926;2022-12-16T08:10:11;11.00;;;9.03;;
46318;SDS011;32042;50.916;2.926;2022-12-16T08:13:02;14.70;;;9.23;;
46318;SDS011;32042;50.916;2.926;2022-12-16T08:15:47;14.63;;;8.87;;
46318;SDS011;32042;50.916;2.926;2022-12-16T08:18:31;15.53;;;9.47;;
46318;SDS011;32042;50.916;2.926;2022-12-16T08:21:16;12.90;;;10.03;;
46318;SDS011;32042;50.916;2.926;2022-12-16T08:24:01;12.77;;;9.27;;
46318;SDS011;32042;50.916;2.926;2022-12-16T08:26:45;15.43;;;10.20;;
46318;SDS011;32042;50.916;2.926;2022-12-16T08:29:29;18.93;;;9.73;;
46318;SDS011;32042;50.916;2.926;2022-12-16T08:32:14;31.90;;;11.97;;
46318;SDS011;32042;50.916;2.926;2022-12-16T08:34:59;21.93;;;11.47;;
46318;SDS011;32042;50.916;2.926;2022-12-16T08:37:44;24.30;;;13.10;;
46318;SDS011;32042;50.916;2.926;2022-12-16T08:40:29;22.47;;;13.53;;
46318;SDS011;32042;50.916;2.926;2022-12-16T08:43:13;20.03;;;13.40;;
46318;SDS011;32042;50.916;2.926;2022-12-16T08:45:58;15.97;;;11.73;;
46318;SDS011;32042;50.916;2.926;2022-12-16T08:48:43;19.23;;;12.00;;
46318;SDS011;32042;50.916;2.926;2022-12-16T08:51:27;24.37;;;14.70;;
46318;SDS011;32042;50.916;2.926;2022-12-16T08:54:12;25.90;;;14.87;;
46318;SDS011;32042;50.916;2.926;2022-12-16T08:56:57;24.47;;;14.30;;
46318;SDS011;32042;50.916;2.926;2022-12-16T08:59:42;27.53;;;15.63;;
46318;SDS011;32042;50.916;2.926;2022-12-16T09:02:26;25.17;;;17.90;;
46318;SDS011;32042;50.916;2.926;2022-12-16T09:05:11;31.97;;;16.97;;
46318;SDS011;32042;50.916;2.926;2022-12-16T09:07:59;36.07;;;18.97;;
46318;SDS011;32042;50.916;2.926;2022-12-16T09:10:43;31.80;;;18.77;;
46318;SDS011;32042;50.916;2.926;2022-12-16T09:13:28;46.57;;;21.60;;
46318;SDS011;32042;50.916;2.926;2022-12-16T09:16:13;34.40;;;21.63;;
46318;SDS011;32042;50.916;2.926;2022-12-16T09:18:58;35.13;;;21.83;;
46318;SDS011;32042;50.916;2.926;2022-12-16T09:21:43;32.10;;;22.73;;
46318;SDS011;32042;50.916;2.926;2022-12-16T09:24:27;32.70;;;21.50;;
46318;SDS011;32042;50.916;2.926;2022-12-16T09:27:12;30.97;;;20.70;;
46318;SDS011;32042;50.916;2.926;2022-12-16T09:29:56;27.23;;;19.37;;
46318;SDS011;32042;50.916;2.926;2022-12-16T09:32:41;27.47;;;17.20;;
46318;SDS011;32042;50.916;2.926;2022-12-16T09:35:26;36.67;;;20.50;;
46318;SDS011;32042;50.916;2.926;2022-12-16T09:38:10;33.40;;;20.90;;
46318;SDS011;32042;50.916;2.926;2022-12-16T09:40:55;32.23;;;19.20;;
46318;SDS011;32042;50.916;2.926;2022-12-16T09:46:28;27.57;;;18.30;;
46318;SDS011;32042;50.916;2.926;2022-12-16T09:52:14;22.20;;;16.03;;
46318;SDS011;32042;50.916;2.926;2022-12-16T09:55:00;25.73;;;17.70;;
46318;SDS011;32042;50.916;2.926;2022-12-16T09:57:45;18.43;;;12.43;;
46318;SDS011;32042;50.916;2.926;2022-12-16T10:00:31;24.57;;;16.53;;
46318;SDS011;32042;50.916;2.926;2022-12-16T10:06:20;19.93;;;14.23;;
46318;SDS011;32042;50.916;2.926;2022-12-16T10:09:11;14.40;;;9.50;;
46318;SDS011;32042;50.916;2.926;2022-12-16T10:14:52;9.90;;;7.13;;
46318;SDS011;32042;50.916;2.926;2022-12-16T10:17:39;21.60;;;10.80;;
46318;SDS011;32042;50.916;2.926;2022-12-16T10:20:29;15.17;;;7.97;;
46318;SDS011;32042;50.916;2.926;2022-12-16T10:23:19;13.40;;;8.73;;
46318;SDS011;32042;50.916;2.926;2022-12-16T10:29:15;10.97;;;7.30;;
46318;SDS011;32042;50.916;2.926;2022-12-16T10:35:18;15.50;;;9.63;;
46318;SDS011;32042;50.916;2.926;2022-12-16T10:38:04;12.87;;;7.80;;
46318;SDS011;32042;50.916;2.926;2022-12-16T10:40:50;8.70;;;6.33;;
46318;SDS011;32042;50.916;2.926;2022-12-16T10:43:39;10.53;;;7.27;;
46318;SDS011;32042;50.916;2.926;2022-12-16T10:46:27;10.93;;;7.63;;
46318;SDS011;32042;50.916;2.926;2022-12-16T10:49:13;10.00;;;7.77;;
46318;SDS011;32042;50.916;2.926;2022-12-16T10:51:58;11.27;;;6.00;;
46318;SDS011;32042;50.916;2.926;2022-12-16T10:57:51;12.63;;;6.80;;
46318;SDS011;32042;50.916;2.926;2022-12-16T11:03:28;11.53;;;5.70;;
46318;SDS011;32042;50.916;2.926;2022-12-16T11:06:35;10.07;;;6.27;;
46318;SDS011;32042;50.916;2.926;2022-12-16T11:09:23;11.00;;;7.13;;
46318;SDS011;32042;50.916;2.926;2022-12-16T11:12:20;9.87;;;6.87;;
46318;SDS011;32042;50.916;2.926;2022-12-16T11:24:37;9.87;;;7.23;;
46318;SDS011;32042;50.916;2.926;2022-12-16T11:27:03;22.53;;;12.57;;
46318;SDS011;32042;50.916;2.926;2022-12-16T11:29:57;18.87;;;10.00;;
46318;SDS011;32042;50.916;2.926;2022-12-16T11:32:43;12.40;;;7.63;;
46318;SDS011;32042;50.916;2.926;2022-12-16T11:35:29;8.70;;;5.53;;
46318;SDS011;32042;50.916;2.926;2022-12-16T11:38:26;21.60;;;11.30;;
46318;SDS011;32042;50.916;2.926;2022-12-16T11:41:17;11.80;;;6.20;;
46318;SDS011;32042;50.916;2.926;2022-12-16T11:44:02;12.37;;;6.30;;
46318;SDS011;32042;50.916;2.926;2022-12-16T11:46:48;8.17;;;5.50;;
46318;SDS011;32042;50.916;2.926;2022-12-16T11:49:33;9.43;;;5.80;;
46318;SDS011;32042;50.916;2.926;2022-12-16T11:52:18;8.80;;;5.53;;
46318;SDS011;32042;50.916;2.926;2022-12-16T11:55:12;12.03;;;5.33;;
46318;SDS011;32042;50.916;2.926;2022-12-16T12:00:53;7.40;;;4.50;;
46318;SDS011;32042;50.916;2.926;2022-12-16T12:03:43;13.60;;;5.70;;
46318;SDS011;32042;50.916;2.926;2022-12-16T12:06:35;12.00;;;7.00;;
46318;SDS011;32042;50.916;2.926;2022-12-16T12:09:29;14.27;;;6.40;;
46318;SDS011;32042;50.916;2.926;2022-12-16T12:12:29;7.17;;;6.13;;
46318;SDS011;32042;50.916;2.926;2022-12-16T12:18:42;9.53;;;5.70;;
46318;SDS011;32042;50.916;2.926;2022-12-16T12:21:34;12.97;;;6.90;;
46318;SDS011;32042;50.916;2.926;2022-12-16T12:24:26;14.20;;;8.03;;
46318;SDS011;32042;50.916;2.926;2022-12-16T12:30:09;9.60;;;5.07;;
46318;SDS011;32042;50.916;2.926;2022-12-16T12:36:03;10.40;;;6.33;;
46318;SDS011;32042;50.916;2.926;2022-12-16T12:45:02;27.93;;;23.43;;
46318;SDS011;32042;50.916;2.926;2022-12-16T12:47:52;6.50;;;4.67;;
46318;SDS011;32042;50.916;2.926;2022-12-16T12:50:41;5.50;;;4.00;;
46318;SDS011;32042;50.916;2.926;2022-12-16T12:59:28;7.30;;;4.20;;
46318;SDS011;32042;50.916;2.926;2022-12-16T13:02:16;6.80;;;3.87;;
46318;SDS011;32042;50.916;2.926;2022-12-16T13:05:03;7.20;;;3.80;;
46318;SDS011;32042;50.916;2.926;2022-12-16T13:07:48;6.33;;;3.13;;
46318;SDS011;32042;50.916;2.926;2022-12-16T13:10:36;5.37;;;4.07;;
46318;SDS011;32042;50.916;2.926;2022-12-16T13:13:32;6.03;;;3.90;;
46318;SDS011;32042;50.916;2.926;2022-12-16T13:22:30;4.57;;;3.33;;
46318;SDS011;32042;50.916;2.926;2022-12-16T13:25:58;7.27;;;3.20;;
46318;SDS011;32042;50.916;2.926;2022-12-16T13:28:36;4.07;;;3.33;;
46318;SDS011;32042;50.916;2.926;2022-12-16T13:31:21;4.37;;;3.03;;
46318;SDS011;32042;50.916;2.926;2022-12-16T13:34:17;3.53;;;2.67;;
46318;SDS011;32042;50.916;2.926;2022-12-16T13:37:04;5.17;;;3.40;;
46318;SDS011;32042;50.916;2.926;2022-12-16T13:40:23;6.50;;;3.13;;
46318;SDS011;32042;50.916;2.926;2022-12-16T13:43:01;5.70;;;3.27;;
46318;SDS011;32042;50.916;2.926;2022-12-16T13:48:42;5.43;;;2.93;;
46318;SDS011;32042;50.916;2.926;2022-12-16T13:57:39;4.47;;;2.60;;
46318;SDS011;32042;50.916;2.926;2022-12-16T14:00:26;5.23;;;3.50;;
46318;SDS011;32042;50.916;2.926;2022-12-16T14:03:18;4.37;;;2.90;;
46318;SDS011;32042;50.916;2.926;2022-12-16T14:06:06;3.33;;;2.90;;
46318;SDS011;32042;50.916;2.926;2022-12-16T14:08:52;7.53;;;3.20;;
46318;SDS011;32042;50.916;2.926;2022-12-16T14:17:33;4.60;;;3.20;;
46318;SDS011;32042;50.916;2.926;2022-12-16T14:20:24;3.87;;;3.20;;
46318;SDS011;32042;50.916;2.926;2022-12-16T14:26:08;9.70;;;4.20;;
46318;SDS011;32042;50.916;2.926;2022-12-16T14:28:54;5.73;;;3.90;;
46318;SDS011;32042;50.916;2.926;2022-12-16T14:31:55;5.57;;;4.17;;
46318;SDS011;32042;50.916;2.926;2022-12-16T14:34:48;6.73;;;4.40;;
46318;SDS011;32042;50.916;2.926;2022-12-16T14:37:44;10.93;;;7.00;;
46318;SDS011;32042;50.916;2.926;2022-12-16T14:40:30;9.03;;;5.70;;
46318;SDS011;32042;50.916;2.926;2022-12-16T14:43:17;6.70;;;5.37;;
46318;SDS011;32042;50.916;2.926;2022-12-16T14:46:02;11.13;;;6.27;;
46318;SDS011;32042;50.916;2.926;2022-12-16T14:48:48;12.10;;;5.37;;
46318;SDS011;32042;50.916;2.926;2022-12-16T14:51:34;13.07;;;9.33;;
46318;SDS011;32042;50.916;2.926;2022-12-16T14:54:21;8.60;;;4.67;;
46318;SDS011;32042;50.916;2.926;2022-12-16T14:57:16;5.30;;;3.90;;
46318;SDS011;32042;50.916;2.926;2022-12-16T15:02:46;7.90;;;3.83;;
46318;SDS011;32042;50.916;2.926;2022-12-16T15:05:32;11.73;;;4.87;;
46318;SDS011;32042;50.916;2.926;2022-12-16T15:08:18;21.63;;;11.90;;
46318;SDS011;32042;50.916;2.926;2022-12-16T15:11:04;28.13;;;13.10;;
46318;SDS011;32042;50.916;2.926;2022-12-16T15:13:52;24.90;;;10.80;;
46318;SDS011;32042;50.916;2.926;2022-12-16T15:16:38;15.87;;;9.10;;
46318;SDS011;32042;50.916;2.926;2022-12-16T15:19:22;13.07;;;7.80;;
46318;SDS011;32042;50.916;2.926;2022-12-16T15:22:14;12.33;;;6.90;;
46318;SDS011;32042;50.916;2.926;2022-12-16T15:24:59;18.23;;;8.63;;
46318;SDS011;32042;50.916;2.926;2022-12-16T15:27:52;29.17;;;11.93;;
46318;SDS011;32042;50.916;2.926;2022-12-16T15:30:44;15.37;;;6.97;;
46318;SDS011;32042;50.916;2.926;2022-12-16T15:33:33;19.73;;;8.20;;
46318;SDS011;32042;50.916;2.926;2022-12-16T15:36:31;15.00;;;7.77;;
46318;SDS011;32042;50.916;2.926;2022-12-16T15:39:25;18.90;;;7.30;;
46318;SDS011;32042;50.916;2.926;2022-12-16T15:42:20;14.17;;;7.10;;
46318;SDS011;32042;50.916;2.926;2022-12-16T15:48:20;13.93;;;7.00;;
46318;SDS011;32042;50.916;2.926;2022-12-16T15:54:16;11.03;;;5.93;;
46318;SDS011;32042;50.916;2.926;2022-12-16T15:57:01;10.60;;;6.27;;
46318;SDS011;32042;50.916;2.926;2022-12-16T15:59:56;9.77;;;5.17;;
46318;SDS011;32042;50.916;2.926;2022-12-16T16:02:45;11.07;;;5.43;;
46318;SDS011;32042;50.916;2.926;2022-12-16T16:05:30;8.03;;;5.37;;
46318;SDS011;32042;50.916;2.926;2022-12-16T16:08:16;9.33;;;4.70;;
46318;SDS011;32042;50.916;2.926;2022-12-16T16:11:00;7.57;;;4.50;;
46318;SDS011;32042;50.916;2.926;2022-12-16T16:13:45;7.90;;;4.93;;
46318;SDS011;32042;50.916;2.926;2022-12-16T16:16:30;7.70;;;4.43;;
46318;SDS011;32042;50.916;2.926;2022-12-16T16:19:19;6.17;;;4.53;;
46318;SDS011;32042;50.916;2.926;2022-12-16T16:22:08;8.90;;;4.67;;
46318;SDS011;32042;50.916;2.926;2022-12-16T16:24:54;12.13;;;5.80;;
46318;SDS011;32042;50.916;2.926;2022-12-16T16:27:38;11.03;;;6.23;;
46318;SDS011;32042;50.916;2.926;2022-12-16T16:30:23;9.00;;;5.70;;
46318;SDS011;32042;50.916;2.926;2022-12-16T16:33:07;17.57;;;10.33;;
46318;SDS011;32042;50.916;2.926;2022-12-16T16:35:52;15.90;;;9.27;;
46318;SDS011;32042;50.916;2.926;2022-12-16T16:38:36;15.80;;;9.43;;
46318;SDS011;32042;50.916;2.926;2022-12-16T16:41:21;15.77;;;10.23;;
46318;SDS011;32042;50.916;2.926;2022-12-16T16:44:05;13.47;;;6.87;;
46318;SDS011;32042;50.916;2.926;2022-12-16T16:46:50;14.43;;;9.40;;
46318;SDS011;32042;50.916;2.926;2022-12-16T16:49:45;11.20;;;9.00;;
46318;SDS011;32042;50.916;2.926;2022-12-16T16:52:30;15.77;;;10.07;;
46318;SDS011;32042;50.916;2.926;2022-12-16T16:55:15;14.40;;;10.70;;
46318;SDS011;32042;50.916;2.926;2022-12-16T16:58:03;13.60;;;9.40;;
46318;SDS011;32042;50.916;2.926;2022-12-16T17:00:49;14.97;;;8.03;;
46318;SDS011;32042;50.916;2.926;2022-12-16T17:03:33;10.40;;;6.93;;
46318;SDS011;32042;50.916;2.926;2022-12-16T17:06:18;8.83;;;6.53;;
46318;SDS011;32042;50.916;2.926;2022-12-16T17:09:02;9.03;;;6.13;;
46318;SDS011;32042;50.916;2.926;2022-12-16T17:11:47;9.40;;;6.60;;
46318;SDS011;32042;50.916;2.926;2022-12-16T17:14:32;9.63;;;7.03;;
46318;SDS011;32042;50.916;2.926;2022-12-16T17:17:16;11.30;;;6.80;;
46318;SDS011;32042;50.916;2.926;2022-12-16T17:20:01;10.43;;;7.33;;
46318;SDS011;32042;50.916;2.926;2022-12-16T17:22:45;9.97;;;7.43;;
46318;SDS011;32042;50.916;2.926;2022-12-16T17:25:30;9.97;;;8.17;;
46318;SDS011;32042;50.916;2.926;2022-12-16T17:28:14;13.00;;;8.23;;
46318;SDS011;32042;50.916;2.926;2022-12-16T17:30:59;12.93;;;8.57;;
46318;SDS011;32042;50.916;2.926;2022-12-16T17:33:44;10.40;;;8.53;;
46318;SDS011;32042;50.916;2.926;2022-12-16T17:36:28;13.03;;;8.07;;
46318;SDS011;32042;50.916;2.926;2022-12-16T17:39:13;11.83;;;7.67;;
46318;SDS011;32042;50.916;2.926;2022-12-16T17:42:05;11.63;;;7.33;;
46318;SDS011;32042;50.916;2.926;2022-12-16T17:44:51;8.83;;;6.90;;
46318;SDS011;32042;50.916;2.926;2022-12-16T17:47:36;9.63;;;7.27;;
46318;SDS011;32042;50.916;2.926;2022-12-16T17:50:20;10.07;;;7.57;;
46318;SDS011;32042;50.916;2.926;2022-12-16T17:53:05;8.83;;;7.27;;
46318;SDS011;32042;50.916;2.926;2022-12-16T17:55:50;10.23;;;6.47;;